sensor_id;sensor_type;location;lat;lon;timestamp;temperature;humidity
9824;DHT22;4951;50.778;7.196;2022-12-18T00:01:20;-6.30;99.90
9824;DHT22;4951;50.778;7.196;2022-12-18T00:03:48;-6.30;99.90
9824;DHT22;4951;50.778;7.196;2022-12-18T00:06:16;-6.40;99.90
9824;DHT22;4951;50.778;7.196;2022-12-18T00:08:44;-6.40;99.90
9824;DHT22;4951;50.778;7.196;2022-12-18T00:11:14;-6.40;99.90
9824;DHT22;4951;50.778;7.196;2022-12-18T00:13:42;-6.40;99.90
9824;DHT22;4951;50.778;7.196;2022-12-18T00:16:11;-6.50;99.90
9824;DHT22;4951;50.778;7.196;2022-12-18T00:18:39;-6.50;99.90
9824;DHT22;4951;50.778;7.196;2022-12-18T00:21:10;-6.50;99.90
9824;DHT22;4951;50.778;7.196;2022-12-18T00:23:39;-6.50;99.90
9824;DHT22;4951;50.778;7.196;2022-12-18T00:26:11;-6.60;99.90
9824;DHT22;4951;50.778;7.196;2022-12-18T00:28:40;-6.50;99.90
9824;DHT22;4951;50.778;7.196;2022-12-18T00:31:09;-6.50;99.90
9824;DHT22;4951;50.778;7.196;2022-12-18T00:33:36;-6.50;99.90
9824;DHT22;4951;50.778;7.196;2022-12-18T00:36:06;-6.50;99.90
9824;DHT22;4951;50.778;7.196;2022-12-18T00:38:34;-6.50;99.90
9824;DHT22;4951;50.778;7.196;2022-12-18T00:41:07;-6.60;99.90
9824;DHT22;4951;50.778;7.196;2022-12-18T00:43:35;-6.50;99.90
9824;DHT22;4951;50.778;7.196;2022-12-18T00:46:01;-6.60;99.90
9824;DHT22;4951;50.778;7.196;2022-12-18T00:48:28;-6.60;99.90
9824;DHT22;4951;50.778;7.196;2022-12-18T00:50:56;-6.60;99.90
9824;DHT22;4951;50.778;7.196;2022-12-18T00:53:23;-6.60;99.90
9824;DHT22;4951;50.778;7.196;2022-12-18T00:55:50;-6.50;99.90
9824;DHT22;4951;50.778;7.196;2022-12-18T00:58:19;-6.60;99.90
9824;DHT22;4951;50.778;7.196;2022-12-18T01:00:46;-6.60;99.90
9824;DHT22;4951;50.778;7.196;2022-12-18T01:03:14;-6.60;99.90
9824;DHT22;4951;50.778;7.196;2022-12-18T01:05:43;-6.70;99.90
9824;DHT22;4951;50.778;7.196;2022-12-18T01:08:11;-6.70;99.90
9824;DHT22;4951;50.778;7.196;2022-12-18T01:10:40;-6.60;99.90
9824;DHT22;4951;50.778;7.196;2022-12-18T01:13:07;-6.60;99.90
9824;DHT22;4951;50.778;7.196;2022-12-18T01:15:36;-6.60;99.90
9824;DHT22;4951;50.778;7.196;2022-12-18T01:18:03;-6.60;99.90
9824;DHT22;4951;50.778;7.196;2022-12-18T01:20:31;-6.60;99.90
9824;DHT22;4951;50.778;7.196;2022-12-18T01:22:58;-6.70;99.90
9824;DHT22;4951;50.778;7.196;2022-12-18T01:25:26;-6.70;99.90
9824;DHT22;4951;50.778;7.196;2022-12-18T01:27:54;-6.80;99.90
9824;DHT22;4951;50.778;7.196;2022-12-18T01:30:21;-6.80;99.90
9824;DHT22;4951;50.778;7.196;2022-12-18T01:32:49;-6.80;99.90
9824;DHT22;4951;50.778;7.196;2022-12-18T01:35:17;-6.90;99.90
9824;DHT22;4951;50.778;7.196;2022-12-18T01:37:44;-7.00;99.90
9824;DHT22;4951;50.778;7.196;2022-12-18T01:40:11;-7.00;99.90
9824;DHT22;4951;50.778;7.196;2022-12-18T01:42:38;-7.00;99.90
9824;DHT22;4951;50.778;7.196;2022-12-18T01:45:22;-7.10;99.90
9824;DHT22;4951;50.778;7.196;2022-12-18T01:47:54;-7.10;99.90
9824;DHT22;4951;50.778;7.196;2022-12-18T01:50:25;-7.20;99.90
9824;DHT22;4951;50.778;7.196;2022-12-18T01:52:56;-7.20;99.90
9824;DHT22;4951;50.778;7.196;2022-12-18T01:55:28;-7.20;99.90
9824;DHT22;4951;50.778;7.196;2022-12-18T01:57:58;-7.30;99.90
9824;DHT22;4951;50.778;7.196;2022-12-18T02:00:27;-7.40;99.90
9824;DHT22;4951;50.778;7.196;2022-12-18T02:02:56;-7.50;99.90
9824;DHT22;4951;50.778;7.196;2022-12-18T02:05:31;-7.60;99.90
9824;DHT22;4951;50.778;7.196;2022-12-18T02:08:07;-7.60;99.90
9824;DHT22;4951;50.778;7.196;2022-12-18T02:10:40;-7.70;94.40
9824;DHT22;4951;50.778;7.196;2022-12-18T02:13:14;-7.80;89.00
9824;DHT22;4951;50.778;7.196;2022-12-18T02:15:47;-7.90;76.80
9824;DHT22;4951;50.778;7.196;2022-12-18T02:18:21;-8.00;73.50
9824;DHT22;4951;50.778;7.196;2022-12-18T02:20:55;-8.00;83.70
9824;DHT22;4951;50.778;7.196;2022-12-18T02:23:44;-8.00;99.90
9824;DHT22;4951;50.778;7.196;2022-12-18T02:26:21;-8.00;99.90
9824;DHT22;4951;50.778;7.196;2022-12-18T02:28:54;-7.90;99.90
9824;DHT22;4951;50.778;7.196;2022-12-18T02:31:30;-7.90;99.90
9824;DHT22;4951;50.778;7.196;2022-12-18T02:34:02;-7.80;99.90
9824;DHT22;4951;50.778;7.196;2022-12-18T02:36:38;-7.70;99.90
9824;DHT22;4951;50.778;7.196;2022-12-18T02:39:09;-7.60;99.90
9824;DHT22;4951;50.778;7.196;2022-12-18T02:41:41;-7.60;99.90
9824;DHT22;4951;50.778;7.196;2022-12-18T02:44:11;-7.60;99.90
9824;DHT22;4951;50.778;7.196;2022-12-18T02:46:41;-7.60;99.90
9824;DHT22;4951;50.778;7.196;2022-12-18T02:49:21;-7.60;99.90
9824;DHT22;4951;50.778;7.196;2022-12-18T02:51:54;-7.60;99.90
9824;DHT22;4951;50.778;7.196;2022-12-18T02:54:45;-7.60;99.90
9824;DHT22;4951;50.778;7.196;2022-12-18T02:57:22;-7.60;99.90
9824;DHT22;4951;50.778;7.196;2022-12-18T03:00:00;-7.70;99.90
9824;DHT22;4951;50.778;7.196;2022-12-18T03:02:35;-7.70;99.90
9824;DHT22;4951;50.778;7.196;2022-12-18T03:05:08;-7.70;99.90
9824;DHT22;4951;50.778;7.196;2022-12-18T03:07:42;-7.70;99.90
9824;DHT22;4951;50.778;7.196;2022-12-18T03:10:15;-7.70;99.90
9824;DHT22;4951;50.778;7.196;2022-12-18T03:12:50;-7.70;99.90
9824;DHT22;4951;50.778;7.196;2022-12-18T03:15:22;-7.70;99.90
9824;DHT22;4951;50.778;7.196;2022-12-18T03:18:01;-7.70;99.90
9824;DHT22;4951;50.778;7.196;2022-12-18T03:20:32;-7.70;99.90
9824;DHT22;4951;50.778;7.196;2022-12-18T03:23:06;-7.70;99.90
9824;DHT22;4951;50.778;7.196;2022-12-18T03:25:38;-7.70;99.90
9824;DHT22;4951;50.778;7.196;2022-12-18T03:28:12;-7.60;99.90
9824;DHT22;4951;50.778;7.196;2022-12-18T03:30:44;-7.50;99.90
9824;DHT22;4951;50.778;7.196;2022-12-18T03:33:17;-7.50;99.90
9824;DHT22;4951;50.778;7.196;2022-12-18T03:35:47;-7.50;99.90
9824;DHT22;4951;50.778;7.196;2022-12-18T03:38:16;-7.50;99.90
9824;DHT22;4951;50.778;7.196;2022-12-18T03:40:56;-7.50;99.90
9824;DHT22;4951;50.778;7.196;2022-12-18T03:43:35;-7.50;99.90
9824;DHT22;4951;50.778;7.196;2022-12-18T03:46:07;-7.50;99.90
9824;DHT22;4951;50.778;7.196;2022-12-18T03:48:41;-7.50;99.90
9824;DHT22;4951;50.778;7.196;2022-12-18T03:51:16;-7.50;99.90
9824;DHT22;4951;50.778;7.196;2022-12-18T03:53:49;-7.50;99.90
9824;DHT22;4951;50.778;7.196;2022-12-18T03:56:23;-7.40;99.90
9824;DHT22;4951;50.778;7.196;2022-12-18T03:58:54;-7.40;99.90
9824;DHT22;4951;50.778;7.196;2022-12-18T04:01:30;-7.40;99.90
9824;DHT22;4951;50.778;7.196;2022-12-18T04:04:00;-7.40;99.90
9824;DHT22;4951;50.778;7.196;2022-12-18T04:06:31;-7.40;99.90
9824;DHT22;4951;50.778;7.196;2022-12-18T04:09:02;-7.30;99.90
9824;DHT22;4951;50.778;7.196;2022-12-18T04:11:32;-7.30;99.90
9824;DHT22;4951;50.778;7.196;2022-12-18T04:14:03;-7.30;99.90
9824;DHT22;4951;50.778;7.196;2022-12-18T04:16:30;-7.30;99.90
9824;DHT22;4951;50.778;7.196;2022-12-18T04:19:01;-7.20;99.90
9824;DHT22;4951;50.778;7.196;2022-12-18T04:21:33;-7.30;99.90
9824;DHT22;4951;50.778;7.196;2022-12-18T04:24:00;-7.30;99.90
9824;DHT22;4951;50.778;7.196;2022-12-18T04:26:28;-7.40;99.90
9824;DHT22;4951;50.778;7.196;2022-12-18T04:29:18;-7.40;99.90
9824;DHT22;4951;50.778;7.196;2022-12-18T04:31:46;-7.50;99.90
9824;DHT22;4951;50.778;7.196;2022-12-18T04:34:15;-7.50;99.90
9824;DHT22;4951;50.778;7.196;2022-12-18T04:36:49;-7.50;99.90
9824;DHT22;4951;50.778;7.196;2022-12-18T04:39:20;-7.50;99.90
9824;DHT22;4951;50.778;7.196;2022-12-18T04:41:50;-7.60;99.90
9824;DHT22;4951;50.778;7.196;2022-12-18T04:44:20;-7.60;99.90
9824;DHT22;4951;50.778;7.196;2022-12-18T04:46:47;-7.60;99.90
9824;DHT22;4951;50.778;7.196;2022-12-18T04:49:15;-7.60;99.90
9824;DHT22;4951;50.778;7.196;2022-12-18T04:51:42;-7.60;99.90
9824;DHT22;4951;50.778;7.196;2022-12-18T04:54:10;-7.70;99.90
9824;DHT22;4951;50.778;7.196;2022-12-18T04:56:37;-7.70;99.90
9824;DHT22;4951;50.778;7.196;2022-12-18T04:59:05;-7.70;99.90
9824;DHT22;4951;50.778;7.196;2022-12-18T05:01:37;-7.70;99.90
9824;DHT22;4951;50.778;7.196;2022-12-18T05:04:05;-7.70;99.90
9824;DHT22;4951;50.778;7.196;2022-12-18T05:06:33;-7.80;99.90
9824;DHT22;4951;50.778;7.196;2022-12-18T05:09:01;-7.80;99.90
9824;DHT22;4951;50.778;7.196;2022-12-18T05:11:28;-7.80;99.90
9824;DHT22;4951;50.778;7.196;2022-12-18T05:13:56;-7.80;99.90
9824;DHT22;4951;50.778;7.196;2022-12-18T05:16:25;-7.80;99.90
9824;DHT22;4951;50.778;7.196;2022-12-18T05:18:54;-7.80;99.90
9824;DHT22;4951;50.778;7.196;2022-12-18T05:21:21;-7.90;99.90
9824;DHT22;4951;50.778;7.196;2022-12-18T05:23:49;-7.90;99.90
9824;DHT22;4951;50.778;7.196;2022-12-18T05:26:17;-7.90;99.90
9824;DHT22;4951;50.778;7.196;2022-12-18T05:28:46;-7.90;99.90
9824;DHT22;4951;50.778;7.196;2022-12-18T05:31:13;-7.90;99.90
9824;DHT22;4951;50.778;7.196;2022-12-18T05:33:41;-8.00;99.90
9824;DHT22;4951;50.778;7.196;2022-12-18T05:36:10;-8.00;99.90
9824;DHT22;4951;50.778;7.196;2022-12-18T05:38:38;-8.00;99.90
9824;DHT22;4951;50.778;7.196;2022-12-18T05:41:06;-8.10;99.90
9824;DHT22;4951;50.778;7.196;2022-12-18T05:43:34;-8.00;99.90
9824;DHT22;4951;50.778;7.196;2022-12-18T05:46:04;-8.00;99.90
9824;DHT22;4951;50.778;7.196;2022-12-18T05:48:31;-8.00;99.90
9824;DHT22;4951;50.778;7.196;2022-12-18T05:51:04;-8.00;99.90
9824;DHT22;4951;50.778;7.196;2022-12-18T05:53:35;-7.90;99.90
9824;DHT22;4951;50.778;7.196;2022-12-18T05:56:03;-7.90;99.90
9824;DHT22;4951;50.778;7.196;2022-12-18T05:58:31;-7.80;99.90
9824;DHT22;4951;50.778;7.196;2022-12-18T06:01:07;-7.80;99.90
9824;DHT22;4951;50.778;7.196;2022-12-18T06:03:34;-7.80;99.90
9824;DHT22;4951;50.778;7.196;2022-12-18T06:06:01;-7.80;99.90
9824;DHT22;4951;50.778;7.196;2022-12-18T06:08:29;-7.80;99.90
9824;DHT22;4951;50.778;7.196;2022-12-18T06:10:57;-7.80;99.90
9824;DHT22;4951;50.778;7.196;2022-12-18T06:13:25;-7.80;99.90
9824;DHT22;4951;50.778;7.196;2022-12-18T06:15:54;-7.80;99.90
9824;DHT22;4951;50.778;7.196;2022-12-18T06:18:21;-7.80;99.90
9824;DHT22;4951;50.778;7.196;2022-12-18T06:20:54;-7.80;99.90
9824;DHT22;4951;50.778;7.196;2022-12-18T06:23:22;-7.80;99.90
9824;DHT22;4951;50.778;7.196;2022-12-18T06:25:49;-7.90;99.90
9824;DHT22;4951;50.778;7.196;2022-12-18T06:28:18;-8.00;99.90
9824;DHT22;4951;50.778;7.196;2022-12-18T06:30:48;-8.00;99.90
9824;DHT22;4951;50.778;7.196;2022-12-18T06:33:17;-8.20;99.90
9824;DHT22;4951;50.778;7.196;2022-12-18T06:35:48;-8.20;99.90
9824;DHT22;4951;50.778;7.196;2022-12-18T06:38:15;-8.20;99.90
9824;DHT22;4951;50.778;7.196;2022-12-18T06:40:43;-8.20;99.90
9824;DHT22;4951;50.778;7.196;2022-12-18T06:43:10;-8.10;99.90
9824;DHT22;4951;50.778;7.196;2022-12-18T06:45:39;-8.10;99.90
9824;DHT22;4951;50.778;7.196;2022-12-18T06:48:06;-8.10;99.90
9824;DHT22;4951;50.778;7.196;2022-12-18T06:50:34;-8.10;99.90
9824;DHT22;4951;50.778;7.196;2022-12-18T06:53:01;-8.10;99.90
9824;DHT22;4951;50.778;7.196;2022-12-18T06:55:29;-8.10;99.90
9824;DHT22;4951;50.778;7.196;2022-12-18T06:57:56;-8.10;99.90
9824;DHT22;4951;50.778;7.196;2022-12-18T07:00:23;-8.00;99.90
9824;DHT22;4951;50.778;7.196;2022-12-18T07:02:53;-8.00;99.90
9824;DHT22;4951;50.778;7.196;2022-12-18T07:05:21;-8.00;99.90
9824;DHT22;4951;50.778;7.196;2022-12-18T07:07:48;-8.00;99.90
9824;DHT22;4951;50.778;7.196;2022-12-18T07:10:16;-8.00;99.90
9824;DHT22;4951;50.778;7.196;2022-12-18T07:12:43;-8.00;99.90
9824;DHT22;4951;50.778;7.196;2022-12-18T07:15:10;-8.00;99.90
9824;DHT22;4951;50.778;7.196;2022-12-18T07:17:38;-8.10;99.90
9824;DHT22;4951;50.778;7.196;2022-12-18T07:20:15;-8.10;99.90
9824;DHT22;4951;50.778;7.196;2022-12-18T07:22:43;-8.20;99.90
9824;DHT22;4951;50.778;7.196;2022-12-18T07:25:10;-8.30;99.90
9824;DHT22;4951;50.778;7.196;2022-12-18T07:27:45;-8.30;99.90
9824;DHT22;4951;50.778;7.196;2022-12-18T07:30:31;-8.30;99.90
9824;DHT22;4951;50.778;7.196;2022-12-18T07:32:59;-8.30;99.90
9824;DHT22;4951;50.778;7.196;2022-12-18T07:35:29;-8.30;99.90
9824;DHT22;4951;50.778;7.196;2022-12-18T07:37:57;-8.20;99.90
9824;DHT22;4951;50.778;7.196;2022-12-18T07:40:27;-8.20;99.90
9824;DHT22;4951;50.778;7.196;2022-12-18T07:42:54;-8.10;99.90
9824;DHT22;4951;50.778;7.196;2022-12-18T07:45:22;-8.00;99.90
9824;DHT22;4951;50.778;7.196;2022-12-18T07:47:49;-7.90;99.90
9824;DHT22;4951;50.778;7.196;2022-12-18T07:50:16;-7.90;99.90
9824;DHT22;4951;50.778;7.196;2022-12-18T07:52:44;-7.80;99.90
9824;DHT22;4951;50.778;7.196;2022-12-18T07:55:12;-7.80;99.90
9824;DHT22;4951;50.778;7.196;2022-12-18T07:57:39;-7.80;99.90
9824;DHT22;4951;50.778;7.196;2022-12-18T08:00:07;-7.70;99.90
9824;DHT22;4951;50.778;7.196;2022-12-18T08:02:38;-7.70;99.90
9824;DHT22;4951;50.778;7.196;2022-12-18T08:05:05;-7.60;1.00
9824;DHT22;4951;50.778;7.196;2022-12-18T08:07:32;-7.50;1.00
9824;DHT22;4951;50.778;7.196;2022-12-18T08:10:01;-7.40;1.00
9824;DHT22;4951;50.778;7.196;2022-12-18T08:12:28;-7.40;1.00
9824;DHT22;4951;50.778;7.196;2022-12-18T08:14:56;-7.40;99.90
9824;DHT22;4951;50.778;7.196;2022-12-18T08:17:23;-7.40;1.00
9824;DHT22;4951;50.778;7.196;2022-12-18T08:19:50;-7.30;1.00
9824;DHT22;4951;50.778;7.196;2022-12-18T08:22:19;-7.20;1.00
9824;DHT22;4951;50.778;7.196;2022-12-18T08:24:47;-7.20;1.00
9824;DHT22;4951;50.778;7.196;2022-12-18T08:27:15;-7.00;1.00
9824;DHT22;4951;50.778;7.196;2022-12-18T08:29:45;-6.90;1.00
9824;DHT22;4951;50.778;7.196;2022-12-18T08:32:13;-6.80;1.00
9824;DHT22;4951;50.778;7.196;2022-12-18T08:34:40;-6.70;1.00
9824;DHT22;4951;50.778;7.196;2022-12-18T08:37:07;-6.60;1.00
9824;DHT22;4951;50.778;7.196;2022-12-18T08:39:34;-6.50;1.00
9824;DHT22;4951;50.778;7.196;2022-12-18T08:42:01;-6.40;1.00
9824;DHT22;4951;50.778;7.196;2022-12-18T08:44:47;-6.30;1.00
9824;DHT22;4951;50.778;7.196;2022-12-18T08:47:15;-6.20;1.00
9824;DHT22;4951;50.778;7.196;2022-12-18T08:49:42;-6.10;1.00
9824;DHT22;4951;50.778;7.196;2022-12-18T08:52:10;-6.10;1.00
9824;DHT22;4951;50.778;7.196;2022-12-18T08:54:37;-6.00;1.00
9824;DHT22;4951;50.778;7.196;2022-12-18T08:57:04;-6.00;1.00
9824;DHT22;4951;50.778;7.196;2022-12-18T08:59:32;-5.90;1.00
9824;DHT22;4951;50.778;7.196;2022-12-18T09:02:00;-5.80;1.00
9824;DHT22;4951;50.778;7.196;2022-12-18T09:04:29;-5.70;1.00
9824;DHT22;4951;50.778;7.196;2022-12-18T09:06:56;-5.60;1.00
9824;DHT22;4951;50.778;7.196;2022-12-18T09:09:24;-5.50;1.00
9824;DHT22;4951;50.778;7.196;2022-12-18T09:11:51;-5.30;1.00
9824;DHT22;4951;50.778;7.196;2022-12-18T09:14:18;-5.20;1.00
9824;DHT22;4951;50.778;7.196;2022-12-18T09:16:45;-5.00;1.00
9824;DHT22;4951;50.778;7.196;2022-12-18T09:19:19;-4.90;1.00
9824;DHT22;4951;50.778;7.196;2022-12-18T09:21:47;-4.70;1.00
9824;DHT22;4951;50.778;7.196;2022-12-18T09:24:17;-4.60;1.00
9824;DHT22;4951;50.778;7.196;2022-12-18T09:26:45;-4.40;1.00
9824;DHT22;4951;50.778;7.196;2022-12-18T09:29:15;-4.30;1.00
9824;DHT22;4951;50.778;7.196;2022-12-18T09:31:43;-4.20;1.00
9824;DHT22;4951;50.778;7.196;2022-12-18T09:34:10;-4.20;99.90
9824;DHT22;4951;50.778;7.196;2022-12-18T09:36:38;-4.10;99.90
9824;DHT22;4951;50.778;7.196;2022-12-18T09:39:05;-3.90;99.90
9824;DHT22;4951;50.778;7.196;2022-12-18T09:41:43;-3.80;99.90
9824;DHT22;4951;50.778;7.196;2022-12-18T09:44:23;-3.70;99.90
9824;DHT22;4951;50.778;7.196;2022-12-18T09:47:09;-3.50;99.90
9824;DHT22;4951;50.778;7.196;2022-12-18T09:49:40;-3.40;99.90
9824;DHT22;4951;50.778;7.196;2022-12-18T09:52:14;-3.30;99.90
9824;DHT22;4951;50.778;7.196;2022-12-18T09:54:51;-3.20;99.90
9824;DHT22;4951;50.778;7.196;2022-12-18T09:57:22;-3.10;99.90
9824;DHT22;4951;50.778;7.196;2022-12-18T09:59:53;-3.00;22.20
9824;DHT22;4951;50.778;7.196;2022-12-18T10:02:23;-2.90;1.00
9824;DHT22;4951;50.778;7.196;2022-12-18T10:05:12;-2.80;1.00
9824;DHT22;4951;50.778;7.196;2022-12-18T10:07:58;-2.80;1.00
9824;DHT22;4951;50.778;7.196;2022-12-18T10:10:36;-2.70;1.00
9824;DHT22;4951;50.778;7.196;2022-12-18T10:13:13;-2.60;1.00
9824;DHT22;4951;50.778;7.196;2022-12-18T10:15:51;-2.60;1.00
9824;DHT22;4951;50.778;7.196;2022-12-18T10:18:31;-2.50;1.00
9824;DHT22;4951;50.778;7.196;2022-12-18T10:21:11;-2.50;1.00
9824;DHT22;4951;50.778;7.196;2022-12-18T10:23:51;-2.40;1.00
9824;DHT22;4951;50.778;7.196;2022-12-18T10:26:20;-2.30;1.00
9824;DHT22;4951;50.778;7.196;2022-12-18T10:28:51;-2.30;1.00
9824;DHT22;4951;50.778;7.196;2022-12-18T10:31:20;-2.20;1.00
9824;DHT22;4951;50.778;7.196;2022-12-18T10:33:48;-2.20;99.90
9824;DHT22;4951;50.778;7.196;2022-12-18T10:36:23;-2.10;1.00
9824;DHT22;4951;50.778;7.196;2022-12-18T10:38:52;-2.00;99.90
9824;DHT22;4951;50.778;7.196;2022-12-18T10:41:25;-1.90;1.00
9824;DHT22;4951;50.778;7.196;2022-12-18T10:44:10;-1.80;1.00
9824;DHT22;4951;50.778;7.196;2022-12-18T10:46:38;-1.80;99.90
9824;DHT22;4951;50.778;7.196;2022-12-18T10:49:19;-1.70;1.00
9824;DHT22;4951;50.778;7.196;2022-12-18T10:51:49;-1.60;1.00
9824;DHT22;4951;50.778;7.196;2022-12-18T10:54:20;-1.60;1.00
9824;DHT22;4951;50.778;7.196;2022-12-18T10:56:49;-1.50;1.00
9824;DHT22;4951;50.778;7.196;2022-12-18T10:59:18;-1.50;1.00
9824;DHT22;4951;50.778;7.196;2022-12-18T11:01:48;-1.50;99.90
9824;DHT22;4951;50.778;7.196;2022-12-18T11:04:18;-1.50;99.90
9824;DHT22;4951;50.778;7.196;2022-12-18T11:07:08;-1.50;46.10
9824;DHT22;4951;50.778;7.196;2022-12-18T11:09:39;-1.50;99.90
9824;DHT22;4951;50.778;7.196;2022-12-18T11:12:15;-1.50;1.00
9824;DHT22;4951;50.778;7.196;2022-12-18T11:14:47;-1.50;1.00
9824;DHT22;4951;50.778;7.196;2022-12-18T11:17:19;-1.50;1.00
9824;DHT22;4951;50.778;7.196;2022-12-18T11:19:55;-1.50;99.90
9824;DHT22;4951;50.778;7.196;2022-12-18T11:22:25;-1.50;1.00
9824;DHT22;4951;50.778;7.196;2022-12-18T11:24:57;-1.50;1.00
9824;DHT22;4951;50.778;7.196;2022-12-18T11:27:26;-1.40;99.90
9824;DHT22;4951;50.778;7.196;2022-12-18T11:30:07;-1.40;1.00
9824;DHT22;4951;50.778;7.196;2022-12-18T11:32:40;-1.40;1.00
9824;DHT22;4951;50.778;7.196;2022-12-18T11:35:18;-1.40;99.90
9824;DHT22;4951;50.778;7.196;2022-12-18T11:37:50;-1.40;99.90
9824;DHT22;4951;50.778;7.196;2022-12-18T11:40:30;-1.40;1.00
9824;DHT22;4951;50.778;7.196;2022-12-18T11:43:07;-1.40;1.00
9824;DHT22;4951;50.778;7.196;2022-12-18T11:45:40;-1.50;1.00
9824;DHT22;4951;50.778;7.196;2022-12-18T11:48:14;-1.50;1.00
9824;DHT22;4951;50.778;7.196;2022-12-18T11:50:52;-1.40;1.00
9824;DHT22;4951;50.778;7.196;2022-12-18T11:53:22;-1.50;99.90
9824;DHT22;4951;50.778;7.196;2022-12-18T11:56:03;-1.50;99.90
9824;DHT22;4951;50.778;7.196;2022-12-18T11:58:55;-1.50;99.90
9824;DHT22;4951;50.778;7.196;2022-12-18T12:01:46;-1.50;1.00
9824;DHT22;4951;50.778;7.196;2022-12-18T12:04:30;-1.50;99.90
9824;DHT22;4951;50.778;7.196;2022-12-18T12:07:12;-1.40;99.90
9824;DHT22;4951;50.778;7.196;2022-12-18T12:09:47;-1.50;63.40
9824;DHT22;4951;50.778;7.196;2022-12-18T12:12:32;-1.50;1.00
9824;DHT22;4951;50.778;7.196;2022-12-18T12:15:22;-1.50;36.50
9824;DHT22;4951;50.778;7.196;2022-12-18T12:17:57;-1.50;1.00
9824;DHT22;4951;50.778;7.196;2022-12-18T12:20:42;-1.50;63.40
9824;DHT22;4951;50.778;7.196;2022-12-18T12:23:18;-1.50;54.80
9824;DHT22;4951;50.778;7.196;2022-12-18T12:25:54;-1.50;68.20
9824;DHT22;4951;50.778;7.196;2022-12-18T12:28:43;-1.50;1.00
9824;DHT22;4951;50.778;7.196;2022-12-18T12:31:19;-1.50;99.90
9824;DHT22;4951;50.778;7.196;2022-12-18T12:33:59;-1.50;99.90
9824;DHT22;4951;50.778;7.196;2022-12-18T12:36:34;-1.50;91.30
9824;DHT22;4951;50.778;7.196;2022-12-18T12:39:09;-1.50;76.80
9824;DHT22;4951;50.778;7.196;2022-12-18T12:41:41;-1.50;1.00
9824;DHT22;4951;50.778;7.196;2022-12-18T12:44:33;-1.50;1.00
9824;DHT22;4951;50.778;7.196;2022-12-18T12:47:14;-1.50;1.00
9824;DHT22;4951;50.778;7.196;2022-12-18T12:49:46;-1.50;1.00
9824;DHT22;4951;50.778;7.196;2022-12-18T12:52:20;-1.50;1.00
9824;DHT22;4951;50.778;7.196;2022-12-18T12:54:49;-1.50;1.00
9824;DHT22;4951;50.778;7.196;2022-12-18T12:57:24;-1.40;99.90
9824;DHT22;4951;50.778;7.196;2022-12-18T13:00:03;-1.40;1.00
9824;DHT22;4951;50.778;7.196;2022-12-18T13:02:35;-1.40;1.00
9824;DHT22;4951;50.778;7.196;2022-12-18T13:05:14;-1.40;99.90
9824;DHT22;4951;50.778;7.196;2022-12-18T13:07:49;-1.40;99.90
9824;DHT22;4951;50.778;7.196;2022-12-18T13:10:31;-1.40;1.00
9824;DHT22;4951;50.778;7.196;2022-12-18T13:13:01;-1.40;1.00
9824;DHT22;4951;50.778;7.196;2022-12-18T13:15:38;-1.40;99.90
9824;DHT22;4951;50.778;7.196;2022-12-18T13:18:13;-1.30;99.90
9824;DHT22;4951;50.778;7.196;2022-12-18T13:20:43;-1.30;1.00
9824;DHT22;4951;50.778;7.196;2022-12-18T13:23:33;-1.20;1.00
9824;DHT22;4951;50.778;7.196;2022-12-18T13:26:32;-1.20;1.00
9824;DHT22;4951;50.778;7.196;2022-12-18T13:29:00;-1.20;1.00
9824;DHT22;4951;50.778;7.196;2022-12-18T13:34:40;-1.20;1.00
9824;DHT22;4951;50.778;7.196;2022-12-18T13:37:41;-1.20;99.90
9824;DHT22;4951;50.778;7.196;2022-12-18T13:43:24;-1.20;99.90
9824;DHT22;4951;50.778;7.196;2022-12-18T13:46:02;-1.20;1.00
9824;DHT22;4951;50.778;7.196;2022-12-18T13:48:33;-1.20;1.00
9824;DHT22;4951;50.778;7.196;2022-12-18T13:51:05;-1.30;1.00
9824;DHT22;4951;50.778;7.196;2022-12-18T13:53:36;-1.30;1.00
9824;DHT22;4951;50.778;7.196;2022-12-18T13:56:04;-1.30;1.00
9824;DHT22;4951;50.778;7.196;2022-12-18T13:58:33;-1.30;1.00
9824;DHT22;4951;50.778;7.196;2022-12-18T14:01:01;-1.30;1.00
9824;DHT22;4951;50.778;7.196;2022-12-18T14:03:30;-1.30;1.00
9824;DHT22;4951;50.778;7.196;2022-12-18T14:06:05;-1.30;1.00
9824;DHT22;4951;50.778;7.196;2022-12-18T14:08:36;-1.30;1.00
9824;DHT22;4951;50.778;7.196;2022-12-18T14:11:04;-1.30;1.00
9824;DHT22;4951;50.778;7.196;2022-12-18T14:13:35;-1.30;1.00
9824;DHT22;4951;50.778;7.196;2022-12-18T14:16:05;-1.30;1.00
9824;DHT22;4951;50.778;7.196;2022-12-18T14:18:43;-1.40;99.90
9824;DHT22;4951;50.778;7.196;2022-12-18T14:21:21;-1.40;99.90
9824;DHT22;4951;50.778;7.196;2022-12-18T14:23:48;-1.50;99.90
9824;DHT22;4951;50.778;7.196;2022-12-18T14:26:24;-1.50;99.90
9824;DHT22;4951;50.778;7.196;2022-12-18T14:28:55;-1.50;1.00
9824;DHT22;4951;50.778;7.196;2022-12-18T14:31:23;-1.60;1.00
9824;DHT22;4951;50.778;7.196;2022-12-18T14:33:52;-1.60;1.00
9824;DHT22;4951;50.778;7.196;2022-12-18T14:36:22;-1.60;1.00
9824;DHT22;4951;50.778;7.196;2022-12-18T14:38:51;-1.60;1.00
9824;DHT22;4951;50.778;7.196;2022-12-18T14:41:20;-1.70;20.50
9824;DHT22;4951;50.778;7.196;2022-12-18T14:43:49;-1.70;99.90
9824;DHT22;4951;50.778;7.196;2022-12-18T14:46:29;-1.70;99.90
9824;DHT22;4951;50.778;7.196;2022-12-18T14:48:59;-1.70;99.90
9824;DHT22;4951;50.778;7.196;2022-12-18T14:51:29;-1.80;99.90
9824;DHT22;4951;50.778;7.196;2022-12-18T14:53:58;-1.80;99.90
9824;DHT22;4951;50.778;7.196;2022-12-18T14:56:28;-1.80;99.90
9824;DHT22;4951;50.778;7.196;2022-12-18T14:58:57;-1.90;99.90
9824;DHT22;4951;50.778;7.196;2022-12-18T15:01:27;-1.90;99.90
9824;DHT22;4951;50.778;7.196;2022-12-18T15:03:56;-2.00;1.00
9824;DHT22;4951;50.778;7.196;2022-12-18T15:06:31;-2.10;1.00
9824;DHT22;4951;50.778;7.196;2022-12-18T15:08:59;-2.10;1.00
9824;DHT22;4951;50.778;7.196;2022-12-18T15:11:44;-2.10;1.00
9824;DHT22;4951;50.778;7.196;2022-12-18T15:14:32;-2.20;1.00
9824;DHT22;4951;50.778;7.196;2022-12-18T15:17:02;-2.20;1.00
9824;DHT22;4951;50.778;7.196;2022-12-18T15:19:37;-2.20;1.00
9824;DHT22;4951;50.778;7.196;2022-12-18T15:22:20;-2.20;99.20
9824;DHT22;4951;50.778;7.196;2022-12-18T15:24:49;-2.20;99.90
9824;DHT22;4951;50.778;7.196;2022-12-18T15:27:25;-2.30;99.90
9824;DHT22;4951;50.778;7.196;2022-12-18T15:30:19;-2.30;99.90
9824;DHT22;4951;50.778;7.196;2022-12-18T15:32:47;-2.30;99.90
9824;DHT22;4951;50.778;7.196;2022-12-18T15:35:18;-2.30;99.90
9824;DHT22;4951;50.778;7.196;2022-12-18T15:37:47;-2.30;99.90
9824;DHT22;4951;50.778;7.196;2022-12-18T15:40:16;-2.30;99.90
9824;DHT22;4951;50.778;7.196;2022-12-18T15:42:44;-2.30;1.00
9824;DHT22;4951;50.778;7.196;2022-12-18T15:45:28;-2.30;99.90
9824;DHT22;4951;50.778;7.196;2022-12-18T15:47:55;-2.30;99.90
9824;DHT22;4951;50.778;7.196;2022-12-18T15:50:23;-2.30;1.00
9824;DHT22;4951;50.778;7.196;2022-12-18T15:52:53;-2.30;1.00
9824;DHT22;4951;50.778;7.196;2022-12-18T15:55:22;-2.30;1.00
9824;DHT22;4951;50.778;7.196;2022-12-18T15:58:09;-2.30;1.00
9824;DHT22;4951;50.778;7.196;2022-12-18T16:00:38;-2.30;1.00
9824;DHT22;4951;50.778;7.196;2022-12-18T16:03:05;-2.30;1.00
9824;DHT22;4951;50.778;7.196;2022-12-18T16:05:33;-2.30;1.00
9824;DHT22;4951;50.778;7.196;2022-12-18T16:08:01;-2.30;1.00
9824;DHT22;4951;50.778;7.196;2022-12-18T16:10:28;-2.30;1.00
9824;DHT22;4951;50.778;7.196;2022-12-18T16:12:55;-2.30;1.00
9824;DHT22;4951;50.778;7.196;2022-12-18T16:15:23;-2.30;1.00
9824;DHT22;4951;50.778;7.196;2022-12-18T16:17:50;-2.30;1.00
9824;DHT22;4951;50.778;7.196;2022-12-18T16:20:20;-2.30;1.00
9824;DHT22;4951;50.778;7.196;2022-12-18T16:22:48;-2.30;1.00
9824;DHT22;4951;50.778;7.196;2022-12-18T16:25:22;-2.40;1.00
9824;DHT22;4951;50.778;7.196;2022-12-18T16:27:51;-2.40;1.00
9824;DHT22;4951;50.778;7.196;2022-12-18T16:30:23;-2.40;1.00
9824;DHT22;4951;50.778;7.196;2022-12-18T16:32:54;-2.40;1.00
9824;DHT22;4951;50.778;7.196;2022-12-18T16:35:21;-2.40;1.00
9824;DHT22;4951;50.778;7.196;2022-12-18T16:37:48;-2.40;1.00
9824;DHT22;4951;50.778;7.196;2022-12-18T16:40:18;-2.40;1.00
9824;DHT22;4951;50.778;7.196;2022-12-18T16:42:46;-2.40;1.00